Time;durP1;ratioP1;P1;durP2;ratioP2;P2;SDS_P1;SDS_P2;PMS_P1;PMS_P2;Temp;Humidity;BMP_temperature;BMP_pressure;BME280_temperature;BME280_humidity;BME280_pressure;Samples;Min_cycle;Max_cycle;Signal;HPM_P1;HPM_P2
2022/02/26 00:01:46;;;;;;;4.85;3.90;;;0.80;99.90;;;;;;469031;253;27498;-75
2022/02/26 00:03:47;;;;;;;5.18;4.62;;;0.80;99.90;;;;;;469041;253;27816;-75
2022/02/26 00:05:48;;;;;;;5.15;4.35;;;0.70;99.90;;;;;;469066;253;27446;-75
2022/02/26 00:07:50;;;;;;;5.55;4.62;;;0.50;99.90;;;;;;469036;253;27587;-75
2022/02/26 00:09:51;;;;;;;4.85;4.03;;;0.40;99.90;;;;;;469044;253;27503;-75
2022/02/26 00:11:52;;;;;;;5.55;4.72;;;0.40;99.90;;;;;;469066;253;27569;-75
2022/02/26 00:13:53;;;;;;;6.25;4.47;;;0.40;99.90;;;;;;469011;253;28030;-75
2022/02/26 00:15:55;;;;;;;6.07;4.32;;;0.40;99.90;;;;;;469080;253;27990;-75
2022/02/26 00:17:56;;;;;;;5.97;4.50;;;0.40;99.90;;;;;;469070;253;27932;-75
2022/02/26 00:19:57;;;;;;;4.25;3.87;;;0.40;99.90;;;;;;469063;253;27893;-75
2022/02/26 00:21:58;;;;;;;5.65;4.60;;;0.40;99.90;;;;;;469061;253;27470;-75
2022/02/26 00:24:00;;;;;;;5.90;4.30;;;0.40;99.90;;;;;;469059;253;27477;-75
2022/02/26 00:26:01;;;;;;;4.75;4.25;;;0.40;99.90;;;;;;469053;253;27459;-75
2022/02/26 00:28:02;;;;;;;4.32;3.60;;;0.40;99.90;;;;;;469054;253;27558;-76
2022/02/26 00:30:03;;;;;;;4.40;4.00;;;0.40;99.90;;;;;;469063;252;27445;-75
2022/02/26 00:32:05;;;;;;;4.05;3.50;;;0.50;99.90;;;;;;469031;253;27505;-75
2022/02/26 00:34:06;;;;;;;4.20;3.80;;;0.50;99.90;;;;;;469027;253;27442;-75
2022/02/26 00:36:07;;;;;;;3.65;3.33;;;0.40;99.90;;;;;;469035;252;27435;-75
2022/02/26 00:38:08;;;;;;;4.53;4.10;;;0.40;99.90;;;;;;469054;253;27476;-75
2022/02/26 00:40:10;;;;;;;4.47;3.90;;;0.30;99.90;;;;;;469038;253;27486;-75
2022/02/26 00:42:11;;;;;;;7.18;3.90;;;0.30;99.90;;;;;;469017;252;28060;-75
2022/02/26 00:44:12;;;;;;;5.57;3.97;;;0.30;99.90;;;;;;469051;253;28652;-75
2022/02/26 00:46:13;;;;;;;4.95;3.40;;;0.30;99.90;;;;;;469048;253;29106;-75
2022/02/26 00:48:15;;;;;;;9.00;4.47;;;0.20;99.90;;;;;;469020;253;29077;-75
2022/02/26 00:50:16;;;;;;;5.53;3.65;;;0.30;99.90;;;;;;469042;253;27431;-75
2022/02/26 00:52:17;;;;;;;4.78;3.60;;;0.40;99.90;;;;;;469041;253;27570;-75
2022/02/26 00:54:18;;;;;;;4.03;3.72;;;0.40;99.90;;;;;;469050;253;27570;-75
2022/02/26 00:56:20;;;;;;;3.28;3.08;;;0.50;99.90;;;;;;469035;253;27470;-75
2022/02/26 00:58:21;;;;;;;4.37;3.55;;;0.60;99.90;;;;;;469036;253;27558;-75
2022/02/26 01:00:22;;;;;;;4.87;3.60;;;0.60;99.90;;;;;;468974;253;27541;-74
2022/02/26 01:02:23;;;;;;;6.10;3.53;;;0.60;99.90;;;;;;469028;253;27486;-75
2022/02/26 01:04:25;;;;;;;4.22;3.45;;;0.70;99.90;;;;;;469045;253;27498;-75
2022/02/26 01:06:26;;;;;;;3.75;3.45;;;0.70;99.90;;;;;;469038;253;27471;-75
2022/02/26 01:08:27;;;;;;;3.25;2.80;;;0.70;99.90;;;;;;469045;253;27478;-76
2022/02/26 01:10:28;;;;;;;4.40;3.97;;;0.60;99.90;;;;;;469045;253;27989;-75
2022/02/26 01:12:30;;;;;;;3.42;3.00;;;0.50;99.90;;;;;;469031;253;28054;-74
2022/02/26 01:14:31;;;;;;;3.85;3.45;;;0.50;99.90;;;;;;469032;253;28016;-75
2022/02/26 01:16:32;;;;;;;4.75;3.22;;;0.50;99.90;;;;;;469023;253;28158;-75
2022/02/26 01:18:33;;;;;;;4.87;3.47;;;0.50;99.90;;;;;;469067;253;27574;-75
2022/02/26 01:20:35;;;;;;;5.07;3.30;;;0.40;99.90;;;;;;469028;253;27534;-75
2022/02/26 01:22:36;;;;;;;3.40;3.10;;;0.30;99.90;;;;;;469040;253;27573;-75
2022/02/26 01:24:37;;;;;;;3.75;2.90;;;0.30;99.90;;;;;;469040;253;27438;-75
2022/02/26 01:26:38;;;;;;;4.90;3.37;;;0.30;99.90;;;;;;469056;253;27585;-75
2022/02/26 01:28:40;;;;;;;6.30;3.20;;;0.30;99.90;;;;;;469065;253;27942;-75
2022/02/26 01:30:41;;;;;;;4.68;3.47;;;0.20;99.90;;;;;;469075;253;27550;-74
2022/02/26 01:32:42;;;;;;;5.03;4.12;;;0.30;99.90;;;;;;469076;253;27605;-75
2022/02/26 01:34:43;;;;;;;4.87;3.87;;;0.20;99.90;;;;;;469092;253;27607;-75
2022/02/26 01:36:45;;;;;;;6.10;4.03;;;0.20;99.90;;;;;;469035;253;27586;-75
2022/02/26 01:38:46;;;;;;;5.68;3.62;;;0.20;99.90;;;;;;469057;253;27980;-75
2022/02/26 01:40:47;;;;;;;4.40;3.45;;;0.20;99.90;;;;;;469046;253;28004;-76
2022/02/26 01:42:48;;;;;;;3.80;3.50;;;0.20;99.90;;;;;;469048;253;28199;-75
2022/02/26 01:44:50;;;;;;;3.85;3.37;;;0.20;99.90;;;;;;469027;253;28093;-75
2022/02/26 01:46:51;;;;;;;4.40;3.97;;;0.30;99.90;;;;;;469019;253;27590;-75
2022/02/26 01:48:52;;;;;;;4.45;3.90;;;0.30;99.90;;;;;;469042;253;27578;-76
2022/02/26 01:50:53;;;;;;;3.15;2.85;;;0.30;99.90;;;;;;469028;253;27546;-75
2022/02/26 01:52:55;;;;;;;2.90;2.70;;;0.30;99.90;;;;;;469037;252;27685;-74
2022/02/26 01:54:56;;;;;;;3.35;2.92;;;0.20;99.90;;;;;;469030;253;27571;-75
2022/02/26 01:56:57;;;;;;;4.72;3.30;;;0.20;99.90;;;;;;469020;253;27574;-76
2022/02/26 01:58:58;;;;;;;5.22;2.97;;;0.10;99.90;;;;;;469064;253;27699;-75
2022/02/26 02:01:00;;;;;;;5.43;3.30;;;0.10;99.90;;;;;;468989;252;29518;-75
2022/02/26 02:03:01;;;;;;;3.03;2.67;;;0.10;99.90;;;;;;469037;253;27578;-75
2022/02/26 02:05:02;;;;;;;3.08;2.78;;;0.10;99.90;;;;;;469027;253;27606;-75
2022/02/26 02:07:03;;;;;;;8.00;2.62;;;0.20;99.90;;;;;;469029;253;28041;-75
2022/02/26 02:09:05;;;;;;;2.92;2.72;;;0.20;99.90;;;;;;469032;253;28151;-76
2022/02/26 02:11:06;;;;;;;2.92;2.72;;;0.30;99.90;;;;;;469039;253;28108;-75
2022/02/26 02:13:07;;;;;;;3.10;2.90;;;0.30;99.90;;;;;;469031;253;28043;-75
2022/02/26 02:15:08;;;;;;;4.80;2.97;;;0.20;99.90;;;;;;469014;253;27521;-75
2022/02/26 02:17:10;;;;;;;3.20;3.00;;;0.20;99.90;;;;;;469007;253;27590;-75
2022/02/26 02:19:11;;;;;;;3.00;2.70;;;0.20;99.90;;;;;;469017;253;27470;-75
2022/02/26 02:21:13;;;;;;;3.25;3.03;;;0.10;99.90;;;;;;469018;253;27630;-75
2022/02/26 02:23:13;;;;;;;3.50;3.00;;;0.00;99.90;;;;;;468985;253;27598;-75
2022/02/26 02:25:15;;;;;;;3.67;3.08;;;0.10;99.90;;;;;;469037;253;27533;-75
2022/02/26 02:27:16;;;;;;;3.10;2.90;;;0.20;99.90;;;;;;469037;253;27673;-75
2022/02/26 02:29:17;;;;;;;3.45;3.15;;;0.20;99.90;;;;;;469046;253;27911;-75
2022/02/26 02:31:18;;;;;;;4.75;2.97;;;0.20;99.90;;;;;;469026;253;27629;-75
2022/02/26 02:33:20;;;;;;;3.45;3.05;;;0.10;99.90;;;;;;469023;253;27595;-75
2022/02/26 02:35:21;;;;;;;3.55;3.10;;;0.20;99.90;;;;;;469051;253;27610;-75
2022/02/26 02:37:22;;;;;;;4.28;3.85;;;0.20;99.90;;;;;;469043;253;28048;-75
2022/02/26 02:39:23;;;;;;;3.90;3.50;;;0.30;99.90;;;;;;469044;253;28110;-75
2022/02/26 02:41:25;;;;;;;4.57;3.47;;;0.30;99.90;;;;;;469019;253;27989;-75
2022/02/26 02:43:26;;;;;;;4.80;3.60;;;0.40;99.90;;;;;;469044;253;27573;-75
2022/02/26 02:45:27;;;;;;;3.97;2.80;;;0.40;99.90;;;;;;469037;253;27528;-75
2022/02/26 02:47:28;;;;;;;5.10;3.42;;;0.50;99.90;;;;;;469027;253;27566;-75
2022/02/26 02:49:30;;;;;;;3.25;2.95;;;0.50;99.90;;;;;;469042;253;27941;-75
2022/02/26 02:51:31;;;;;;;5.68;3.25;;;0.50;99.90;;;;;;469043;253;27642;-75
2022/02/26 02:53:32;;;;;;;6.82;3.12;;;0.60;99.90;;;;;;469008;253;27577;-75
2022/02/26 02:55:33;;;;;;;3.10;2.80;;;0.60;99.90;;;;;;469032;253;27549;-75
2022/02/26 02:57:35;;;;;;;3.75;3.45;;;0.50;99.90;;;;;;469031;253;27534;-75
2022/02/26 02:59:36;;;;;;;2.97;2.78;;;0.60;99.90;;;;;;469049;253;27477;-75
2022/02/26 03:01:37;;;;;;;4.70;3.42;;;0.60;99.90;;;;;;469030;253;27562;-75
2022/02/26 03:03:38;;;;;;;3.97;3.08;;;0.60;99.90;;;;;;469065;253;28057;-75
2022/02/26 03:05:40;;;;;;;4.18;3.25;;;0.60;99.90;;;;;;469060;253;28054;-75
2022/02/26 03:07:41;;;;;;;3.30;3.10;;;0.60;99.90;;;;;;469052;253;28068;-74
2022/02/26 03:09:42;;;;;;;3.25;2.95;;;0.70;99.90;;;;;;469006;253;27964;-75
2022/02/26 03:11:43;;;;;;;3.00;2.72;;;0.60;99.90;;;;;;469046;253;27539;-75
2022/02/26 03:13:45;;;;;;;3.20;2.90;;;0.60;99.90;;;;;;469029;253;27560;-75
2022/02/26 03:15:46;;;;;;;3.30;3.00;;;0.60;99.90;;;;;;469030;253;27635;-75
2022/02/26 03:17:47;;;;;;;3.33;2.67;;;0.70;99.90;;;;;;469003;253;27562;-75
2022/02/26 03:19:49;;;;;;;3.58;2.65;;;0.70;99.90;;;;;;469016;253;27534;-75
2022/02/26 03:21:50;;;;;;;2.80;2.60;;;0.60;99.90;;;;;;468996;253;27606;-75
2022/02/26 03:23:51;;;;;;;3.05;2.80;;;0.60;99.90;;;;;;469050;253;27601;-75
2022/02/26 03:25:52;;;;;;;4.93;2.72;;;0.70;99.90;;;;;;469017;253;27536;-74
2022/02/26 03:27:53;;;;;;;3.12;2.78;;;0.70;99.90;;;;;;469020;253;27573;-75
2022/02/26 03:29:55;;;;;;;3.58;2.78;;;0.70;99.90;;;;;;469008;253;27534;-75
2022/02/26 03:31:56;;;;;;;2.62;2.42;;;0.70;99.90;;;;;;469028;253;28009;-75
2022/02/26 03:33:58;;;;;;;4.03;3.10;;;0.70;99.90;;;;;;469042;253;28053;-75
2022/02/26 03:35:58;;;;;;;6.43;2.72;;;0.60;99.90;;;;;;468983;253;27988;-75
2022/02/26 03:38:00;;;;;;;3.60;3.30;;;0.60;99.90;;;;;;468999;253;28041;-75
2022/02/26 03:40:01;;;;;;;3.35;2.83;;;0.50;99.90;;;;;;469032;253;27578;-75
2022/02/26 03:42:02;;;;;;;3.25;3.05;;;0.50;99.90;;;;;;469004;253;27669;-75
2022/02/26 03:44:03;;;;;;;4.43;2.85;;;0.50;99.90;;;;;;469020;253;27574;-75
2022/02/26 03:46:05;;;;;;;3.12;2.87;;;0.50;99.90;;;;;;469026;253;27535;-75
2022/02/26 03:48:06;;;;;;;3.85;2.80;;;0.40;99.90;;;;;;468972;253;27579;-75
2022/02/26 03:50:07;;;;;;;3.28;2.60;;;0.40;99.90;;;;;;469041;252;27546;-75
2022/02/26 03:52:08;;;;;;;4.25;2.72;;;0.40;99.90;;;;;;469024;253;27659;-75
2022/02/26 03:54:10;;;;;;;3.10;2.90;;;0.40;99.90;;;;;;469023;253;27689;-75
2022/02/26 03:56:11;;;;;;;3.37;2.78;;;0.40;99.90;;;;;;469022;253;27597;-75
2022/02/26 03:58:12;;;;;;;4.65;3.20;;;0.40;99.90;;;;;;469005;253;27648;-76
2022/02/26 04:00:13;;;;;;;3.70;3.30;;;0.30;99.90;;;;;;469013;253;28060;-75
2022/02/26 04:02:15;;;;;;;3.15;2.90;;;0.30;99.90;;;;;;469007;253;28022;-75
2022/02/26 04:04:16;;;;;;;3.22;2.95;;;0.30;99.90;;;;;;468992;253;29145;-75
2022/02/26 04:06:17;;;;;;;3.05;2.75;;;0.30;99.90;;;;;;468993;253;28015;-75
2022/02/26 04:08:18;;;;;;;3.80;3.40;;;0.30;99.90;;;;;;468977;253;27606;-75
2022/02/26 04:10:20;;;;;;;4.45;3.17;;;0.20;99.90;;;;;;468932;253;27537;-76
2022/02/26 04:12:21;;;;;;;8.18;3.65;;;0.20;99.90;;;;;;468862;253;27579;-75
2022/02/26 04:14:22;;;;;;;3.20;2.55;;;0.20;99.90;;;;;;469006;252;27573;-75
2022/02/26 04:16:23;;;;;;;4.32;3.30;;;0.10;99.90;;;;;;468995;253;27533;-75
2022/02/26 04:18:25;;;;;;;5.30;2.90;;;0.20;99.90;;;;;;469015;253;27587;-75
2022/02/26 04:20:26;;;;;;;3.42;3.00;;;0.20;99.90;;;;;;469005;253;27625;-75
2022/02/26 04:22:28;;;;;;;3.30;2.97;;;0.20;99.90;;;;;;469010;253;27595;-75
2022/02/26 04:24:28;;;;;;;3.70;3.40;;;0.20;99.90;;;;;;469037;253;27467;-75
2022/02/26 04:26:30;;;;;;;3.20;2.97;;;0.10;99.90;;;;;;469056;253;27535;-75
2022/02/26 04:28:31;;;;;;;3.78;3.20;;;0.10;99.90;;;;;;469052;253;28149;-76
2022/02/26 04:30:33;;;;;;;3.00;2.80;;;0.10;99.90;;;;;;469072;252;27981;-75
2022/02/26 04:32:33;;;;;;;3.03;2.70;;;0.00;99.90;;;;;;468987;251;27984;-75
2022/02/26 04:34:35;;;;;;;3.17;2.80;;;0.00;99.90;;;;;;469055;253;29223;-75
2022/02/26 04:36:36;;;;;;;3.22;2.95;;;0.10;99.90;;;;;;469061;253;27554;-75
2022/02/26 04:38:37;;;;;;;3.17;2.87;;;0.10;99.90;;;;;;469030;253;27569;-75
2022/02/26 04:40:38;;;;;;;4.12;3.05;;;0.10;99.90;;;;;;469041;253;27439;-75
2022/02/26 04:42:40;;;;;;;3.05;2.75;;;0.00;99.90;;;;;;468978;253;27554;-75
2022/02/26 04:44:41;;;;;;;2.83;2.62;;;0.00;99.90;;;;;;469069;253;27499;-75
2022/02/26 04:46:42;;;;;;;3.78;3.35;;;0.00;99.90;;;;;;469048;253;27498;-75
2022/02/26 04:48:43;;;;;;;5.68;3.47;;;0.00;99.90;;;;;;469031;253;27631;-75
2022/02/26 04:50:45;;;;;;;3.33;3.10;;;0.10;99.90;;;;;;469039;253;27432;-75
2022/02/26 04:52:46;;;;;;;3.25;2.90;;;0.10;99.90;;;;;;469011;253;27474;-75
2022/02/26 04:54:47;;;;;;;2.62;2.42;;;0.00;99.90;;;;;;469045;253;27503;-75
2022/02/26 04:56:48;;;;;;;3.40;2.95;;;-0.10;99.90;;;;;;469030;253;27913;-76
2022/02/26 04:58:50;;;;;;;2.95;2.75;;;0.00;99.90;;;;;;469039;253;27965;-75
2022/02/26 05:00:52;;;;;;;6.00;3.25;;;0.00;99.90;;;;;;469055;253;28082;-75
2022/02/26 05:02:52;;;;;;;5.00;2.83;;;0.00;99.90;;;;;;468865;253;27595;-76
2022/02/26 05:04:53;;;;;;;4.35;3.22;;;0.00;99.90;;;;;;469034;253;27573;-75
2022/02/26 05:06:55;;;;;;;3.40;3.10;;;0.00;99.90;;;;;;469038;253;27448;-75
2022/02/26 05:08:56;;;;;;;5.07;2.97;;;0.00;99.90;;;;;;469040;253;27531;-75
2022/02/26 05:10:57;;;;;;;2.90;2.60;;;-0.10;99.90;;;;;;469051;253;27429;-75
2022/02/26 05:12:58;;;;;;;5.80;3.45;;;-0.10;99.90;;;;;;469049;253;27724;-75
2022/02/26 05:15:00;;;;;;;3.25;2.95;;;-0.20;99.90;;;;;;469043;253;27442;-74
2022/02/26 05:17:01;;;;;;;3.70;3.40;;;-0.20;99.90;;;;;;469036;253;27557;-78
2022/02/26 05:19:02;;;;;;;3.28;3.08;;;-0.10;99.90;;;;;;469045;253;27577;-75
2022/02/26 05:21:03;;;;;;;3.87;3.40;;;-0.10;99.90;;;;;;469032;253;28243;-75
2022/02/26 05:23:05;;;;;;;3.87;3.35;;;-0.20;99.90;;;;;;469020;252;27972;-75
2022/02/26 05:25:06;;;;;;;3.25;3.05;;;-0.30;99.90;;;;;;469065;253;27958;-75
2022/02/26 05:27:07;;;;;;;2.55;2.45;;;-0.30;99.90;;;;;;469041;253;27570;-75
2022/02/26 05:29:08;;;;;;;3.62;3.17;;;-0.30;99.90;;;;;;469042;253;27588;-75
2022/02/26 05:31:10;;;;;;;3.15;2.85;;;-0.30;99.90;;;;;;469044;252;27466;-75
2022/02/26 05:33:11;;;;;;;5.90;3.30;;;-0.30;99.90;;;;;;469043;253;27594;-75
2022/02/26 05:35:12;;;;;;;3.90;2.97;;;-0.40;99.90;;;;;;469039;253;27552;-74
2022/02/26 05:37:13;;;;;;;3.17;2.80;;;-0.40;99.90;;;;;;469081;253;27630;-75
2022/02/26 05:39:15;;;;;;;4.00;3.20;;;-0.40;99.90;;;;;;469080;253;27574;-75
2022/02/26 05:41:16;;;;;;;3.35;2.87;;;-0.40;99.90;;;;;;469042;253;28034;-75
2022/02/26 05:43:17;;;;;;;2.70;2.50;;;-0.40;99.90;;;;;;469021;253;29170;-75
2022/02/26 05:45:18;;;;;;;4.10;2.90;;;-0.40;99.90;;;;;;469060;253;27670;-76
2022/02/26 05:47:20;;;;;;;4.55;2.92;;;-0.40;99.90;;;;;;469068;253;27656;-75
2022/02/26 05:49:21;;;;;;;4.43;3.30;;;-0.50;99.90;;;;;;469054;253;27586;-74
2022/02/26 05:51:22;;;;;;;3.47;2.78;;;-0.60;99.90;;;;;;469029;253;27614;-75
2022/02/26 05:53:23;;;;;;;5.62;3.50;;;-0.60;99.90;;;;;;469016;253;27577;-75
2022/02/26 05:55:25;;;;;;;3.35;3.00;;;-0.60;99.90;;;;;;469055;253;27926;-75
2022/02/26 05:57:26;;;;;;;3.40;3.10;;;-0.60;99.90;;;;;;469037;253;27539;-75
2022/02/26 05:59:27;;;;;;;3.97;3.15;;;-0.60;99.90;;;;;;469054;253;27669;-75
2022/02/26 06:01:28;;;;;;;3.10;2.90;;;-0.70;99.90;;;;;;469014;253;27994;-75
2022/02/26 06:03:30;;;;;;;2.67;2.47;;;-0.70;99.90;;;;;;469006;253;28044;-75
2022/02/26 06:05:31;;;;;;;4.05;3.08;;;-0.70;99.90;;;;;;469012;253;27586;-75
2022/02/26 06:07:32;;;;;;;4.22;3.15;;;-0.80;99.90;;;;;;468994;253;27629;-75
2022/02/26 06:09:33;;;;;;;4.87;3.62;;;-0.80;99.90;;;;;;468990;253;27574;-75
2022/02/26 06:11:35;;;;;;;3.97;3.50;;;-0.80;99.90;;;;;;468993;253;27688;-75
2022/02/26 06:13:36;;;;;;;3.58;3.25;;;-0.80;99.90;;;;;;469044;253;27664;-75
2022/02/26 06:15:37;;;;;;;3.53;3.22;;;-0.80;99.90;;;;;;469006;252;27588;-74
2022/02/26 06:17:39;;;;;;;3.92;3.62;;;-0.80;99.90;;;;;;468961;252;27556;-76
2022/02/26 06:19:40;;;;;;;3.40;3.15;;;-0.80;99.90;;;;;;469004;253;28148;-75
2022/02/26 06:21:41;;;;;;;5.62;4.12;;;-0.70;99.90;;;;;;469016;253;28689;-75
2022/02/26 06:23:42;;;;;;;3.95;3.53;;;-0.70;99.90;;;;;;469029;253;27996;-75
2022/02/26 06:25:44;;;;;;;6.20;4.18;;;-0.70;99.90;;;;;;469051;253;27654;-75
2022/02/26 06:27:45;;;;;;;4.78;4.18;;;-0.80;99.90;;;;;;469029;253;27586;-75
2022/02/26 06:29:46;;;;;;;4.87;4.25;;;-0.70;99.90;;;;;;469048;253;27469;-76
2022/02/26 06:31:47;;;;;;;5.05;3.60;;;-0.70;99.90;;;;;;469022;252;27593;-74
2022/02/26 06:33:49;;;;;;;3.75;3.25;;;-0.70;99.90;;;;;;469044;253;27544;-75
2022/02/26 06:35:50;;;;;;;5.93;3.47;;;-0.70;99.90;;;;;;469043;253;27581;-76
2022/02/26 06:37:51;;;;;;;5.35;3.80;;;-0.70;99.90;;;;;;469029;253;27576;-74
2022/02/26 06:39:52;;;;;;;5.90;3.40;;;-0.70;99.90;;;;;;469008;253;28029;-74
2022/02/26 06:41:54;;;;;;;3.65;3.35;;;-0.70;99.90;;;;;;469062;253;28017;-75
2022/02/26 06:43:55;;;;;;;5.45;3.40;;;-0.70;99.90;;;;;;469012;252;28001;-75
2022/02/26 06:45:56;;;;;;;3.90;3.60;;;-0.60;99.90;;;;;;469023;253;27574;-76
2022/02/26 06:47:57;;;;;;;6.28;3.20;;;-0.60;99.90;;;;;;469021;252;27615;-75
2022/02/26 06:49:59;;;;;;;4.82;3.53;;;-0.70;99.90;;;;;;469020;253;27573;-75
2022/02/26 06:52:00;;;;;;;4.57;3.33;;;-0.60;99.90;;;;;;469020;253;27595;-75
2022/02/26 06:54:01;;;;;;;4.30;3.90;;;-0.60;99.90;;;;;;469034;253;27657;-74
2022/02/26 06:56:02;;;;;;;5.28;4.07;;;-0.50;99.90;;;;;;469015;253;27678;-75
2022/02/26 06:58:04;;;;;;;4.32;3.75;;;-0.40;99.90;;;;;;469018;253;27603;-75
2022/02/26 07:00:05;;;;;;;6.10;4.30;;;-0.30;99.90;;;;;;469029;253;28144;-75
2022/02/26 07:02:06;;;;;;;6.10;4.40;;;-0.20;99.90;;;;;;469038;253;28116;-75
2022/02/26 07:04:07;;;;;;;6.68;4.60;;;-0.20;99.90;;;;;;469031;253;29205;-75
2022/02/26 07:06:09;;;;;;;6.03;5.03;;;-0.30;99.90;;;;;;469023;253;27578;-75
2022/02/26 07:08:10;;;;;;;5.93;4.53;;;-0.30;99.90;;;;;;469006;253;27525;-75
2022/02/26 07:10:11;;;;;;;5.85;4.72;;;-0.30;99.90;;;;;;468990;253;27570;-75
2022/02/26 07:12:12;;;;;;;6.15;5.20;;;-0.30;99.90;;;;;;469045;252;27911;-75
2022/02/26 07:14:14;;;;;;;5.65;4.43;;;-0.30;99.90;;;;;;469029;253;27542;-75
2022/02/26 07:16:15;;;;;;;6.25;4.35;;;-0.40;99.90;;;;;;468999;253;27575;-74
2022/02/26 07:18:16;;;;;;;4.95;4.50;;;-0.40;99.90;;;;;;469045;253;28137;-75
2022/02/26 07:20:17;;;;;;;6.18;4.78;;;-0.40;99.90;;;;;;469031;253;28150;-74
2022/02/26 07:22:19;;;;;;;4.40;4.00;;;-0.40;99.90;;;;;;469066;253;29156;-75
2022/02/26 07:24:20;;;;;;;4.35;3.87;;;-0.30;99.90;;;;;;469012;253;27552;-75
2022/02/26 07:26:21;;;;;;;5.25;4.12;;;-0.40;99.90;;;;;;469070;253;27593;-75
2022/02/26 07:28:22;;;;;;;4.62;4.15;;;-0.30;99.90;;;;;;469058;253;27540;-75
2022/02/26 07:30:24;;;;;;;4.75;4.25;;;-0.30;99.90;;;;;;469057;253;27534;-75
2022/02/26 07:32:25;;;;;;;3.95;3.62;;;-0.20;99.90;;;;;;469051;253;27754;-75
2022/02/26 07:34:26;;;;;;;4.62;3.70;;;-0.20;99.90;;;;;;469051;253;27539;-75
2022/02/26 07:36:27;;;;;;;3.80;3.45;;;-0.20;99.90;;;;;;469019;253;27578;-75
2022/02/26 07:38:29;;;;;;;4.07;3.67;;;-0.20;99.90;;;;;;469023;253;28907;-75
2022/02/26 07:40:30;;;;;;;4.57;3.75;;;-0.10;99.90;;;;;;469033;253;28096;-75
2022/02/26 07:42:31;;;;;;;3.90;3.60;;;-0.10;99.90;;;;;;469044;252;28133;-74
2022/02/26 07:44:33;;;;;;;3.67;3.37;;;-0.10;99.90;;;;;;469024;253;27554;-75
2022/02/26 07:46:34;;;;;;;4.30;3.90;;;-0.10;99.90;;;;;;469013;253;27579;-76
2022/02/26 07:48:35;;;;;;;3.40;3.10;;;0.00;99.90;;;;;;469025;253;27586;-75
2022/02/26 07:50:36;;;;;;;3.78;3.35;;;0.00;99.90;;;;;;469033;253;27653;-75
2022/02/26 07:52:37;;;;;;;5.70;3.95;;;0.00;99.90;;;;;;469012;253;27662;-75
2022/02/26 07:54:39;;;;;;;3.70;3.30;;;0.00;99.90;;;;;;469029;253;27614;-75
2022/02/26 07:56:40;;;;;;;5.30;3.80;;;0.00;99.90;;;;;;469015;253;27643;-75
2022/02/26 07:58:41;;;;;;;3.80;3.35;;;0.10;99.90;;;;;;469044;253;27612;-75
2022/02/26 08:00:42;;;;;;;4.22;3.28;;;0.10;99.90;;;;;;469054;253;28001;-75
2022/02/26 08:02:44;;;;;;;3.72;3.42;;;0.10;99.90;;;;;;469045;253;27964;-75
2022/02/26 08:04:45;;;;;;;2.80;2.60;;;0.10;99.90;;;;;;469030;253;28060;-77
2022/02/26 08:06:46;;;;;;;3.22;3.03;;;0.10;99.90;;;;;;469030;253;29064;-75
2022/02/26 08:08:47;;;;;;;4.12;3.47;;;0.20;99.90;;;;;;469012;253;27446;-77
2022/02/26 08:10:49;;;;;;;4.62;3.75;;;0.30;99.90;;;;;;469005;253;27438;-75
2022/02/26 08:12:50;;;;;;;6.18;3.67;;;0.30;99.90;;;;;;469053;253;27600;-77
2022/02/26 08:14:51;;;;;;;4.03;3.65;;;0.30;99.90;;;;;;469029;252;27489;-75
2022/02/26 08:16:52;;;;;;;4.78;3.92;;;0.40;99.90;;;;;;469028;253;27478;-76
2022/02/26 08:18:54;;;;;;;5.07;3.90;;;0.40;99.90;;;;;;469060;253;27578;-75
2022/02/26 08:20:57;;;;;;;4.25;3.85;;;0.50;99.90;;;;;;469046;253;27581;-75
2022/02/26 08:22:56;;;;;;;3.70;3.40;;;0.50;99.90;;;;;;468935;253;27542;-75
2022/02/26 08:24:57;;;;;;;3.67;3.12;;;0.60;99.90;;;;;;469032;253;27443;-75
2022/02/26 08:26:59;;;;;;;5.72;3.30;;;0.70;99.90;;;;;;469046;252;27486;-76
2022/02/26 08:29:00;;;;;;;4.25;3.78;;;0.70;99.90;;;;;;469046;253;28138;-75
2022/02/26 08:31:01;;;;;;;4.30;4.00;;;0.70;99.90;;;;;;469062;253;27956;-75
2022/02/26 08:33:02;;;;;;;6.35;4.45;;;0.80;99.90;;;;;;469030;253;28063;-76
2022/02/26 08:35:04;;;;;;;4.40;4.00;;;0.90;99.90;;;;;;469038;253;27893;-76
2022/02/26 08:37:05;;;;;;;7.50;4.47;;;1.10;99.90;;;;;;469032;253;27561;-75
2022/02/26 08:39:06;;;;;;;8.52;5.12;;;1.40;99.90;;;;;;469065;253;27480;-76
2022/02/26 08:41:07;;;;;;;10.02;4.95;;;1.70;99.90;;;;;;469076;253;27452;-75
2022/02/26 08:43:09;;;;;;;13.77;4.80;;;1.90;99.90;;;;;;469028;253;27570;-75
2022/02/26 08:45:10;;;;;;;13.18;4.03;;;2.00;99.90;;;;;;469045;253;27534;-76
2022/02/26 08:47:11;;;;;;;10.40;4.20;;;2.10;99.90;;;;;;469019;253;27486;-75
2022/02/26 08:49:12;;;;;;;10.77;3.80;;;2.00;99.90;;;;;;469039;252;27498;-76
2022/02/26 08:51:14;;;;;;;8.27;3.55;;;2.00;99.90;;;;;;469031;253;27470;-76
2022/02/26 08:53:15;;;;;;;12.13;3.60;;;2.20;99.90;;;;;;469058;253;28083;-76
2022/02/26 08:55:16;;;;;;;20.70;4.30;;;2.20;99.90;;;;;;469073;253;27998;-75
2022/02/26 08:57:17;;;;;;;9.20;3.75;;;2.30;99.90;;;;;;469055;253;28066;-76
2022/02/26 08:59:19;;;;;;;8.32;3.60;;;2.30;99.90;;;;;;469054;253;28145;-75
2022/02/26 09:01:20;;;;;;;14.10;3.95;;;2.30;99.90;;;;;;469052;253;27431;-75
2022/02/26 09:03:21;;;;;;;6.72;3.47;;;2.40;99.90;;;;;;469045;253;27589;-75
2022/02/26 09:05:22;;;;;;;5.32;3.45;;;2.50;99.90;;;;;;469030;253;27447;-75
2022/02/26 09:07:24;;;;;;;7.32;3.62;;;2.60;99.90;;;;;;469034;253;27474;-75
2022/02/26 09:09:25;;;;;;;11.57;3.55;;;2.60;99.90;;;;;;469045;253;27578;-75
2022/02/26 09:11:26;;;;;;;10.15;4.25;;;2.60;99.90;;;;;;469043;253;27450;-76
2022/02/26 09:13:27;;;;;;;9.85;3.60;;;2.70;99.90;;;;;;469061;253;27493;-76
2022/02/26 09:15:29;;;;;;;7.90;3.60;;;2.80;99.90;;;;;;469035;253;27450;-76
2022/02/26 09:17:30;;;;;;;9.93;3.65;;;2.90;99.90;;;;;;469051;253;28040;-75
2022/02/26 09:19:31;;;;;;;4.90;3.25;;;2.90;99.90;;;;;;469034;253;28072;-75
2022/02/26 09:21:33;;;;;;;7.60;3.67;;;2.90;99.90;;;;;;469013;253;28062;-76
2022/02/26 09:23:34;;;;;;;9.77;3.50;;;2.80;99.90;;;;;;469042;253;27944;-76
2022/02/26 09:25:35;;;;;;;19.17;3.30;;;2.90;99.90;;;;;;469036;253;27560;-75
2022/02/26 09:27:36;;;;;;;9.50;3.58;;;3.00;99.90;;;;;;469029;253;27676;-76
2022/02/26 09:29:38;;;;;;;7.15;2.55;;;2.90;99.90;;;;;;469041;253;27565;-76
2022/02/26 09:31:41;;;;;;;7.90;2.75;;;2.90;99.90;;;;;;469047;253;27562;-76
2022/02/26 09:33:40;;;;;;;9.68;3.22;;;2.90;99.90;;;;;;468944;253;27566;-75
2022/02/26 09:35:41;;;;;;;9.88;2.60;;;2.90;99.90;;;;;;469034;252;27582;-75
2022/02/26 09:37:43;;;;;;;13.00;3.67;;;2.90;99.90;;;;;;469030;252;27693;-75
2022/02/26 09:39:44;;;;;;;10.07;3.15;;;2.90;99.90;;;;;;469029;253;27561;-75
2022/02/26 09:41:48;;;;;;;15.95;3.00;;;2.90;99.90;;;;;;469035;253;27611;-76
2022/02/26 09:43:46;;;;;;;13.32;3.05;;;2.90;99.90;;;;;;468722;253;28077;-75
2022/02/26 09:45:48;;;;;;;8.85;2.92;;;3.00;99.90;;;;;;469048;253;28012;-75
2022/02/26 09:47:49;;;;;;;5.60;2.42;;;3.00;99.90;;;;;;469053;253;28136;-76
2022/02/26 09:49:50;;;;;;;6.47;3.20;;;3.10;99.90;;;;;;469033;253;27693;-76
2022/02/26 09:51:51;;;;;;;6.32;2.75;;;3.00;99.90;;;;;;469030;253;27593;-76
2022/02/26 09:53:53;;;;;;;8.13;2.80;;;2.90;99.90;;;;;;469013;253;27570;-77
2022/02/26 09:55:54;;;;;;;6.53;2.65;;;2.90;99.90;;;;;;469031;253;27573;-76
2022/02/26 09:57:55;;;;;;;11.25;3.30;;;2.90;99.90;;;;;;469028;253;27707;-76
2022/02/26 09:59:56;;;;;;;10.30;2.80;;;3.00;99.90;;;;;;469039;253;27927;-76
2022/02/26 10:01:58;;;;;;;10.68;2.95;;;3.10;99.90;;;;;;469047;253;27612;-76
2022/02/26 10:03:59;;;;;;;11.48;3.17;;;3.20;99.90;;;;;;469032;253;27554;-75
2022/02/26 10:06:00;;;;;;;6.35;2.80;;;3.10;99.90;;;;;;469007;253;28049;-76
2022/02/26 10:08:01;;;;;;;7.30;2.87;;;3.20;99.90;;;;;;469029;253;28137;-76
2022/02/26 10:10:03;;;;;;;13.43;3.72;;;3.30;99.90;;;;;;469046;253;28107;-77
2022/02/26 10:12:04;;;;;;;7.72;3.22;;;3.20;99.90;;;;;;469012;253;28010;-76
2022/02/26 10:14:05;;;;;;;7.28;3.25;;;3.20;99.90;;;;;;469061;253;27578;-75
2022/02/26 10:16:06;;;;;;;10.85;3.30;;;3.30;99.90;;;;;;469052;253;27545;-76
2022/02/26 10:18:09;;;;;;;12.65;3.35;;;3.30;99.90;;;;;;469039;253;27598;-75
2022/02/26 10:20:09;;;;;;;10.32;3.20;;;3.30;99.90;;;;;;468986;251;27997;-75
2022/02/26 10:22:10;;;;;;;12.85;3.53;;;3.40;99.90;;;;;;469043;252;27532;-75
2022/02/26 10:24:11;;;;;;;9.18;2.75;;;3.60;99.90;;;;;;469062;253;27493;-75
2022/02/26 10:26:13;;;;;;;7.70;3.50;;;3.60;99.90;;;;;;469036;253;27686;-75
2022/02/26 10:28:14;;;;;;;9.63;3.20;;;3.60;99.90;;;;;;469034;253;27598;-76
2022/02/26 10:30:15;;;;;;;7.20;3.30;;;3.60;99.90;;;;;;469041;252;28084;-75
2022/02/26 10:32:16;;;;;;;3.28;2.00;;;3.60;99.90;;;;;;469028;253;27983;-76
2022/02/26 10:34:18;;;;;;;12.13;2.75;;;3.70;99.90;;;;;;469012;253;28040;-76
2022/02/26 10:36:19;;;;;;;12.93;3.30;;;3.70;99.90;;;;;;469033;253;29106;-76